createdAt,value
2023-05-14T00:01:20.304Z,3.50
2023-05-14T00:03:47.205Z,3.20
2023-05-14T00:06:15.506Z,3.90
2023-05-14T00:08:42.339Z,3.28
2023-05-14T00:11:09.338Z,3.50
2023-05-14T00:13:36.533Z,3.63
2023-05-14T00:16:03.684Z,3.63
2023-05-14T00:18:30.656Z,3.47
2023-05-14T00:20:57.570Z,3.78
2023-05-14T00:23:24.572Z,4.07
2023-05-14T00:25:51.387Z,3.97
2023-05-14T00:28:18.153Z,3.50
2023-05-14T00:30:45.224Z,3.58
2023-05-14T00:33:12.370Z,3.28
2023-05-14T00:35:39.263Z,3.22
2023-05-14T00:38:06.275Z,2.90
2023-05-14T00:40:33.974Z,2.97
2023-05-14T00:43:01.066Z,3.17
2023-05-14T00:45:28.256Z,3.33
2023-05-14T00:47:55.173Z,3.40
2023-05-14T00:50:22.978Z,3.50
2023-05-14T00:52:50.030Z,3.67
2023-05-14T00:55:17.213Z,3.33
2023-05-14T00:57:44.381Z,3.53
2023-05-14T01:00:11.773Z,3.17
2023-05-14T01:02:38.881Z,3.08
2023-05-14T01:05:06.832Z,3.33
2023-05-14T01:08:00.763Z,3.38
2023-05-14T01:10:45.584Z,3.17
2023-05-14T01:13:36.371Z,2.95
2023-05-14T01:16:05.061Z,3.70
2023-05-14T01:18:32.937Z,3.40
2023-05-14T01:20:59.751Z,2.92
2023-05-14T01:23:26.517Z,3.63
2023-05-14T01:25:53.319Z,3.65
2023-05-14T01:28:29.564Z,3.83
2023-05-14T01:31:08.452Z,3.25
2023-05-14T01:33:37.081Z,3.30
2023-05-14T01:36:04.886Z,3.35
2023-05-14T01:38:33.995Z,3.10
2023-05-14T01:41:01.470Z,3.42
2023-05-14T01:43:30.003Z,3.45
2023-05-14T01:45:56.879Z,3.15
2023-05-14T01:48:25.336Z,3.40
2023-05-14T01:50:52.638Z,3.40
2023-05-14T01:53:19.598Z,3.10
2023-05-14T01:55:46.500Z,3.03
2023-05-14T01:58:13.395Z,2.90
2023-05-14T02:00:40.193Z,2.95
2023-05-14T02:03:07.093Z,3.28
2023-05-14T02:05:34.255Z,3.00
2023-05-14T02:08:01.127Z,3.50
2023-05-14T02:10:28.054Z,2.80
2023-05-14T02:12:55.946Z,3.00
2023-05-14T02:15:22.897Z,3.10
2023-05-14T02:17:49.742Z,3.67
2023-05-14T02:20:16.699Z,3.40
2023-05-14T02:22:45.632Z,3.58
2023-05-14T02:25:12.752Z,3.35
2023-05-14T02:27:39.513Z,3.60
2023-05-14T02:30:07.100Z,3.90
2023-05-14T02:32:34.077Z,3.67
2023-05-14T02:35:01.080Z,3.72
2023-05-14T02:37:27.944Z,3.50
2023-05-14T02:39:54.789Z,3.35
2023-05-14T02:42:23.045Z,3.53
2023-05-14T02:44:50.192Z,4.75
2023-05-14T02:47:16.988Z,4.53
2023-05-14T02:49:43.785Z,3.55
2023-05-14T02:52:10.622Z,3.72
2023-05-14T02:54:37.627Z,3.55
2023-05-14T02:57:04.881Z,3.42
2023-05-14T02:59:31.924Z,3.55
2023-05-14T03:01:59.364Z,3.88
2023-05-14T03:04:26.718Z,3.53
2023-05-14T03:06:53.702Z,3.75
2023-05-14T03:09:20.597Z,3.63
2023-05-14T03:11:47.399Z,3.45
2023-05-14T03:14:14.328Z,3.08
2023-05-14T03:16:42.133Z,2.80
2023-05-14T03:19:09.791Z,3.20
2023-05-14T03:21:36.764Z,3.05
2023-05-14T03:24:03.650Z,2.95
2023-05-14T03:26:30.460Z,3.30
2023-05-14T03:28:57.328Z,3.38
2023-05-14T03:31:25.033Z,3.50
2023-05-14T03:33:52.093Z,3.38
2023-05-14T03:36:18.906Z,3.95
2023-05-14T03:38:47.928Z,3.70
2023-05-14T03:41:15.670Z,3.88
2023-05-14T03:43:42.780Z,3.83
2023-05-14T03:46:09.671Z,4.13
2023-05-14T03:48:36.660Z,3.78
2023-05-14T03:51:05.279Z,3.22
2023-05-14T03:53:32.061Z,3.10
2023-05-14T03:55:58.842Z,3.25
2023-05-14T03:58:26.203Z,3.38
2023-05-14T04:00:53.617Z,2.80
2023-05-14T04:03:20.594Z,3.38
2023-05-14T04:05:47.478Z,3.28
2023-05-14T04:08:14.288Z,3.42
2023-05-14T04:10:42.036Z,3.15
2023-05-14T04:13:08.898Z,3.15
2023-05-14T04:15:39.267Z,3.42
2023-05-14T04:18:06.189Z,3.38
2023-05-14T04:20:33.088Z,3.60
2023-05-14T04:22:59.886Z,3.92
2023-05-14T04:25:26.774Z,4.13
2023-05-14T04:27:53.670Z,3.47
2023-05-14T04:30:21.010Z,4.10
2023-05-14T04:32:48.006Z,4.00
2023-05-14T04:35:14.843Z,4.03
2023-05-14T04:37:41.774Z,3.72
2023-05-14T04:40:12.562Z,3.95
2023-05-14T04:42:39.402Z,3.92
2023-05-14T04:45:07.279Z,3.63
2023-05-14T04:47:34.346Z,3.92
2023-05-14T04:50:01.254Z,3.35
2023-05-14T04:52:28.093Z,4.18
2023-05-14T04:54:55.046Z,3.97
2023-05-14T04:57:22.046Z,3.85
2023-05-14T04:59:48.850Z,3.72
2023-05-14T05:02:15.700Z,3.13
2023-05-14T05:04:42.691Z,3.13
2023-05-14T05:07:09.499Z,3.05
2023-05-14T05:09:36.359Z,3.53
2023-05-14T05:12:03.195Z,3.30
2023-05-14T05:14:30.026Z,3.50
2023-05-14T05:16:56.824Z,4.22
2023-05-14T05:19:35.639Z,4.50
2023-05-14T05:22:07.005Z,4.20
2023-05-14T05:24:33.791Z,4.40
2023-05-14T05:27:00.660Z,4.70
2023-05-14T05:29:27.501Z,3.90
2023-05-14T05:31:54.411Z,3.40
2023-05-14T05:34:21.545Z,4.30
2023-05-14T05:36:48.411Z,4.25
2023-05-14T05:39:15.226Z,4.30
2023-05-14T05:41:43.461Z,4.75
2023-05-14T05:44:10.319Z,4.55
2023-05-14T05:46:37.462Z,5.07
2023-05-14T05:49:04.266Z,6.85
2023-05-14T05:51:31.428Z,5.07
2023-05-14T05:53:58.242Z,5.10
2023-05-14T05:56:25.108Z,5.00
2023-05-14T05:58:52.019Z,4.78
2023-05-14T06:01:18.848Z,5.38
2023-05-14T06:03:48.261Z,5.40
2023-05-14T06:06:15.588Z,5.07
2023-05-14T06:08:42.500Z,4.93
2023-05-14T06:11:10.343Z,5.30
2023-05-14T06:13:37.114Z,5.03
2023-05-14T06:16:04.055Z,4.72
2023-05-14T06:18:30.940Z,5.30
2023-05-14T06:20:59.952Z,5.50
2023-05-14T06:23:27.107Z,5.50
2023-05-14T06:25:54.202Z,5.22
2023-05-14T06:28:21.212Z,5.55
2023-05-14T06:30:50.583Z,5.47
2023-05-14T06:33:19.411Z,5.25
2023-05-14T06:38:14.116Z,5.28
2023-05-14T06:40:40.866Z,5.03
2023-05-14T06:43:07.689Z,5.47
2023-05-14T06:45:34.566Z,5.43
2023-05-14T06:48:01.512Z,5.50
2023-05-14T06:50:28.476Z,4.95
2023-05-14T06:52:55.336Z,5.38
2023-05-14T06:55:22.257Z,5.85
2023-05-14T06:57:49.064Z,5.75
2023-05-14T07:00:16.895Z,5.28
2023-05-14T07:02:43.751Z,5.18
2023-05-14T07:05:11.171Z,5.55
2023-05-14T07:07:37.974Z,5.90
2023-05-14T07:10:05.828Z,5.25
2023-05-14T07:12:32.596Z,5.68
2023-05-14T07:14:59.401Z,5.47
2023-05-14T07:17:26.257Z,5.45
2023-05-14T07:19:55.427Z,6.10
2023-05-14T07:22:22.552Z,5.78
2023-05-14T07:24:50.301Z,6.00
2023-05-14T07:27:17.249Z,5.22
2023-05-14T07:29:44.349Z,5.70
2023-05-14T07:32:12.731Z,5.40
2023-05-14T07:34:40.832Z,5.32
2023-05-14T07:37:07.699Z,5.55
2023-05-14T07:39:34.544Z,4.50
2023-05-14T07:42:01.959Z,5.57
2023-05-14T07:44:28.800Z,5.85
2023-05-14T07:46:55.736Z,5.88
2023-05-14T07:49:22.563Z,5.38
2023-05-14T07:51:49.359Z,5.75
2023-05-14T07:54:16.759Z,5.70
2023-05-14T07:56:44.417Z,5.70
2023-05-14T07:59:11.202Z,5.65
2023-05-14T08:01:39.312Z,5.57
2023-05-14T08:04:06.639Z,6.05
2023-05-14T08:06:33.949Z,5.65
2023-05-14T08:09:00.943Z,5.05
2023-05-14T08:11:27.929Z,5.85
2023-05-14T08:13:54.786Z,6.55
2023-05-14T08:16:21.846Z,9.15
2023-05-14T08:18:48.926Z,12.48
2023-05-14T08:21:15.850Z,7.00
2023-05-14T08:23:42.790Z,5.80
2023-05-14T08:26:10.738Z,5.85
2023-05-14T08:28:37.574Z,5.88
2023-05-14T08:31:04.407Z,5.60
2023-05-14T08:33:31.314Z,5.75
2023-05-14T08:36:00.448Z,5.88
2023-05-14T08:38:27.307Z,6.03
2023-05-14T08:41:01.111Z,5.15
2023-05-14T08:43:45.243Z,5.53
2023-05-14T08:46:15.294Z,5.22
2023-05-14T08:48:43.690Z,5.57
2023-05-14T08:51:10.582Z,5.70
2023-05-14T08:53:38.410Z,5.63
2023-05-14T08:56:07.037Z,5.70
2023-05-14T08:58:33.980Z,6.20
2023-05-14T09:01:00.824Z,5.40
2023-05-14T09:03:28.634Z,5.63
2023-05-14T09:05:56.452Z,5.40
2023-05-14T09:08:24.292Z,5.55
2023-05-14T09:10:51.490Z,6.03
2023-05-14T09:13:18.528Z,5.05
2023-05-14T09:15:46.203Z,5.75
2023-05-14T09:18:13.121Z,4.80
2023-05-14T09:20:40.649Z,4.57
2023-05-14T09:23:07.497Z,4.43
2023-05-14T09:25:34.312Z,4.40
2023-05-14T09:28:07.645Z,4.50
2023-05-14T09:30:36.927Z,4.32
2023-05-14T09:33:04.266Z,3.58
2023-05-14T09:35:32.284Z,4.03
2023-05-14T09:37:59.190Z,3.35
2023-05-14T09:40:26.222Z,3.80
2023-05-14T09:42:53.330Z,3.65
2023-05-14T09:45:20.207Z,3.80
2023-05-14T09:47:47.258Z,4.38
2023-05-14T09:50:14.431Z,3.83
2023-05-14T09:52:41.285Z,3.90
2023-05-14T09:55:08.665Z,3.92
2023-05-14T09:57:35.754Z,4.10
2023-05-14T10:00:02.924Z,4.10
2023-05-14T10:02:37.740Z,3.70
2023-05-14T10:05:06.420Z,3.90
2023-05-14T10:07:44.645Z,3.50
2023-05-14T10:10:16.868Z,3.35
2023-05-14T10:12:57.480Z,3.60
2023-05-14T10:15:34.775Z,3.67
2023-05-14T10:18:12.362Z,3.85
2023-05-14T10:20:41.384Z,3.70
2023-05-14T10:23:08.249Z,3.67
2023-05-14T10:25:36.918Z,3.60
2023-05-14T10:28:05.931Z,3.30
2023-05-14T10:30:32.990Z,3.50
2023-05-14T10:33:18.340Z,3.70
2023-05-14T10:36:06.660Z,3.50
2023-05-14T10:38:36.082Z,3.40
2023-05-14T10:41:07.054Z,3.25
2023-05-14T10:43:39.161Z,3.40
2023-05-14T10:46:07.663Z,3.50
2023-05-14T10:48:36.889Z,3.33
2023-05-14T10:51:03.844Z,4.82
2023-05-14T10:53:48.930Z,4.53
2023-05-14T10:56:15.840Z,3.40
2023-05-14T10:58:44.729Z,3.72
2023-05-14T11:01:13.227Z,3.50
2023-05-14T11:03:42.298Z,3.80
2023-05-14T11:06:11.181Z,3.53
2023-05-14T11:08:39.226Z,3.08
2023-05-14T11:11:10.150Z,2.90
2023-05-14T11:13:37.547Z,2.72
2023-05-14T11:16:21.147Z,2.85
2023-05-14T11:19:02.110Z,3.00
2023-05-14T11:21:30.358Z,3.92
2023-05-14T11:23:57.762Z,3.78
2023-05-14T11:26:24.694Z,3.67
2023-05-14T11:28:51.991Z,3.50
2023-05-14T11:31:19.201Z,4.20
2023-05-14T11:33:46.449Z,4.45
2023-05-14T11:36:13.450Z,4.05
2023-05-14T11:38:51.259Z,4.30
2023-05-14T11:41:20.798Z,4.22
2023-05-14T11:43:48.189Z,3.90
2023-05-14T11:46:18.817Z,4.20
2023-05-14T11:48:46.021Z,3.33
2023-05-14T11:51:13.040Z,3.10
2023-05-14T11:53:39.926Z,2.53
2023-05-14T11:56:09.031Z,2.58
2023-05-14T12:01:03.592Z,2.72
2023-05-14T12:03:31.012Z,2.90
2023-05-14T12:05:59.655Z,2.42
2023-05-14T12:08:28.100Z,2.60
2023-05-14T12:10:55.369Z,3.13
2023-05-14T12:13:26.358Z,3.28
2023-05-14T12:15:59.275Z,3.45
2023-05-14T12:18:31.567Z,3.67
2023-05-14T12:21:08.232Z,3.47
2023-05-14T12:23:35.443Z,3.33
2023-05-14T12:26:07.006Z,2.92
2023-05-14T12:28:38.411Z,3.60
2023-05-14T12:31:05.627Z,3.80
2023-05-14T12:33:32.559Z,3.40
2023-05-14T12:36:17.482Z,4.00
2023-05-14T12:38:48.352Z,4.15
2023-05-14T12:41:15.171Z,4.00
2023-05-14T12:43:47.904Z,4.15
2023-05-14T12:46:15.015Z,3.70
2023-05-14T12:48:41.807Z,4.55
2023-05-14T12:51:08.688Z,4.40
2023-05-14T12:53:35.708Z,4.25
2023-05-14T12:56:02.528Z,3.88
2023-05-14T12:58:29.352Z,3.58
2023-05-14T13:00:56.416Z,3.80
2023-05-14T13:03:23.533Z,3.42
2023-05-14T13:05:52.263Z,3.58
2023-05-14T13:08:21.448Z,3.35
2023-05-14T13:10:48.508Z,3.20
2023-05-14T13:13:15.827Z,3.65
2023-05-14T13:15:42.663Z,3.83
2023-05-14T13:18:09.572Z,3.70
2023-05-14T13:20:36.761Z,3.83
2023-05-14T13:23:03.609Z,3.60
2023-05-14T13:25:30.514Z,3.50
2023-05-14T13:27:57.445Z,3.65
2023-05-14T13:30:24.359Z,2.90
2023-05-14T13:32:51.397Z,3.15
2023-05-14T13:35:18.645Z,3.08
2023-05-14T13:37:45.609Z,3.08
2023-05-14T13:40:12.823Z,3.40
2023-05-14T13:42:39.783Z,3.47
2023-05-14T13:45:07.915Z,3.47
2023-05-14T13:47:34.824Z,3.88
2023-05-14T13:50:01.660Z,4.18
2023-05-14T13:52:28.487Z,3.63
2023-05-14T13:54:58.017Z,3.95
2023-05-14T13:57:24.949Z,5.78
2023-05-14T13:59:51.756Z,4.55
2023-05-14T14:02:18.595Z,3.92
2023-05-14T14:04:45.476Z,4.15
2023-05-14T14:07:12.315Z,5.40
2023-05-14T14:09:39.165Z,6.70
2023-05-14T14:12:06.601Z,5.07
2023-05-14T14:14:33.553Z,3.92
2023-05-14T14:17:00.665Z,5.95
2023-05-14T14:19:27.506Z,4.40
2023-05-14T14:21:54.545Z,5.35
2023-05-14T14:24:21.361Z,4.90
2023-05-14T14:26:48.151Z,5.53
2023-05-14T14:29:14.935Z,4.97
2023-05-14T14:31:41.803Z,3.53
2023-05-14T14:34:08.773Z,3.47
2023-05-14T14:36:35.730Z,3.53
2023-05-14T14:39:02.513Z,3.60
2023-05-14T14:41:29.754Z,3.20
2023-05-14T14:43:56.719Z,3.50
2023-05-14T14:46:23.601Z,3.17
2023-05-14T14:48:50.441Z,3.50
2023-05-14T14:51:17.287Z,3.45
2023-05-14T14:53:44.178Z,3.88
2023-05-14T14:56:11.121Z,3.50
2023-05-14T14:58:38.251Z,2.97
2023-05-14T15:01:05.270Z,3.42
2023-05-14T15:03:32.371Z,3.28
2023-05-14T15:05:59.422Z,3.28
2023-05-14T15:08:28.009Z,3.70
2023-05-14T15:10:59.271Z,2.90
2023-05-14T15:13:26.860Z,2.80
2023-05-14T15:15:53.715Z,2.22
2023-05-14T15:18:20.784Z,2.50
2023-05-14T15:20:47.803Z,2.70
2023-05-14T15:23:14.619Z,2.50
2023-05-14T15:25:41.426Z,2.67
2023-05-14T15:28:08.417Z,2.35
2023-05-14T15:30:35.315Z,2.67
2023-05-14T15:33:02.287Z,2.38
2023-05-14T15:35:29.256Z,2.50
2023-05-14T15:37:57.325Z,2.35
2023-05-14T15:40:24.489Z,2.28
2023-05-14T15:42:51.499Z,2.30
2023-05-14T15:45:18.555Z,2.40
2023-05-14T15:47:45.501Z,2.20
2023-05-14T15:50:12.668Z,2.08
2023-05-14T15:52:39.952Z,2.15
2023-05-14T15:55:07.674Z,2.50
2023-05-14T15:57:34.663Z,2.28
2023-05-14T16:00:01.807Z,2.30
2023-05-14T16:05:00.223Z,1.87
2023-05-14T16:07:27.112Z,2.00
2023-05-14T16:09:54.046Z,2.20
2023-05-14T16:12:20.864Z,2.17
2023-05-14T16:14:47.744Z,2.50
2023-05-14T16:17:14.649Z,3.30
2023-05-14T16:19:41.634Z,2.38
2023-05-14T16:22:08.506Z,2.50
2023-05-14T16:24:36.065Z,2.55
2023-05-14T16:27:04.783Z,2.25
2023-05-14T16:29:32.621Z,2.10
2023-05-14T16:31:59.936Z,2.22
2023-05-14T16:34:26.720Z,2.40
2023-05-14T16:36:53.538Z,2.38
2023-05-14T16:39:20.504Z,2.50
2023-05-14T16:41:47.351Z,2.00
2023-05-14T16:44:14.204Z,2.25
2023-05-14T16:46:41.010Z,2.20
2023-05-14T16:49:07.856Z,2.22
2023-05-14T16:51:34.807Z,2.22
2023-05-14T16:54:01.738Z,2.40
2023-05-14T16:56:29.260Z,2.30
2023-05-14T16:58:56.088Z,2.38
2023-05-14T17:01:22.956Z,2.30
2023-05-14T17:03:49.758Z,2.58
2023-05-14T17:06:16.611Z,2.03
2023-05-14T17:08:43.458Z,2.10
2023-05-14T17:11:10.419Z,2.45
2023-05-14T17:13:37.267Z,2.08
2023-05-14T17:16:04.370Z,1.75
2023-05-14T17:18:32.561Z,2.30
2023-05-14T17:20:59.483Z,1.67
2023-05-14T17:23:26.349Z,2.03
2023-05-14T17:25:53.166Z,1.90
2023-05-14T17:28:19.985Z,2.17
2023-05-14T17:30:46.749Z,2.08
2023-05-14T17:33:13.592Z,1.92
2023-05-14T17:35:40.467Z,1.70
2023-05-14T17:38:07.327Z,2.00
2023-05-14T17:40:34.697Z,1.60
2023-05-14T17:43:01.795Z,1.70
2023-05-14T17:45:34.141Z,1.73
2023-05-14T17:48:06.630Z,2.00
2023-05-14T17:50:33.502Z,2.00
2023-05-14T17:53:00.364Z,2.00
2023-05-14T17:55:27.209Z,1.80
2023-05-14T17:57:54.033Z,1.60
2023-05-14T18:00:20.932Z,1.88
2023-05-14T18:02:47.861Z,1.90
2023-05-14T18:05:14.796Z,2.10
2023-05-14T18:07:41.707Z,2.15
2023-05-14T18:10:08.853Z,2.30
2023-05-14T18:12:35.811Z,2.10
2023-05-14T18:15:02.584Z,2.28
2023-05-14T18:17:29.597Z,2.20
2023-05-14T18:19:56.395Z,1.83
2023-05-14T18:22:23.197Z,2.00
2023-05-14T18:24:49.988Z,2.28
2023-05-14T18:27:16.808Z,2.20
2023-05-14T18:29:43.690Z,2.28
2023-05-14T18:32:10.499Z,2.20
2023-05-14T18:34:37.333Z,1.90
2023-05-14T18:37:04.226Z,2.13
2023-05-14T18:39:31.158Z,2.10
2023-05-14T18:41:58.007Z,2.30
2023-05-14T18:44:24.850Z,2.20
2023-05-14T18:46:52.271Z,2.13
2023-05-14T18:49:19.106Z,2.25
2023-05-14T18:51:45.971Z,2.45
2023-05-14T18:54:12.792Z,1.92
2023-05-14T18:56:45.377Z,2.15
2023-05-14T18:59:13.651Z,2.28
2023-05-14T19:01:40.536Z,2.40
2023-05-14T19:04:08.068Z,2.33
2023-05-14T19:06:36.035Z,2.20
2023-05-14T19:09:02.858Z,3.10
2023-05-14T19:11:30.878Z,5.30
2023-05-14T19:13:57.883Z,10.07
2023-05-14T19:16:24.853Z,10.90
2023-05-14T19:18:51.828Z,4.35
2023-05-14T19:21:18.724Z,2.95
2023-05-14T19:23:45.645Z,2.28
2023-05-14T19:26:12.476Z,2.30
2023-05-14T19:28:39.315Z,2.75
2023-05-14T19:31:06.293Z,5.57
2023-05-14T19:33:33.220Z,4.88
2023-05-14T19:36:00.031Z,3.95
2023-05-14T19:38:27.171Z,2.80
2023-05-14T19:40:56.799Z,2.78
2023-05-14T19:43:27.864Z,2.20
2023-05-14T19:45:54.731Z,2.00
2023-05-14T19:48:21.557Z,2.20
2023-05-14T19:50:48.436Z,2.42
2023-05-14T19:53:15.413Z,2.58
2023-05-14T19:55:42.226Z,2.63
2023-05-14T19:58:11.961Z,2.17
2023-05-14T20:00:39.044Z,2.30
2023-05-14T20:03:07.347Z,2.22
2023-05-14T20:05:34.308Z,2.20
2023-05-14T20:08:01.156Z,2.40
2023-05-14T20:10:28.351Z,2.22
2023-05-14T20:12:55.358Z,2.45
2023-05-14T20:15:23.587Z,2.67
2023-05-14T20:17:50.472Z,2.42
2023-05-14T20:20:17.361Z,3.80
2023-05-14T20:22:44.960Z,2.97
2023-05-14T20:25:12.237Z,2.30
2023-05-14T20:27:39.105Z,2.53
2023-05-14T20:30:06.955Z,2.20
2023-05-14T20:32:34.170Z,2.65
2023-05-14T20:35:01.991Z,4.28
2023-05-14T20:37:30.468Z,2.80
2023-05-14T20:39:57.400Z,2.72
2023-05-14T20:42:25.453Z,3.03
2023-05-14T20:44:53.470Z,2.90
2023-05-14T20:47:24.064Z,3.50
2023-05-14T20:49:51.189Z,2.95
2023-05-14T20:52:18.750Z,2.60
2023-05-14T20:54:45.856Z,2.47
2023-05-14T20:57:17.921Z,2.38
2023-05-14T20:59:45.984Z,3.22
2023-05-14T21:02:12.978Z,2.78
2023-05-14T21:04:40.024Z,3.25
2023-05-14T21:07:07.202Z,2.92
2023-05-14T21:09:34.079Z,3.25
2023-05-14T21:12:00.947Z,2.88
2023-05-14T21:14:27.758Z,3.15
2023-05-14T21:16:54.542Z,3.03
2023-05-14T21:19:23.248Z,3.05
2023-05-14T21:21:50.314Z,7.63
2023-05-14T21:24:17.072Z,3.90
2023-05-14T21:26:43.875Z,2.97
2023-05-14T21:29:11.263Z,4.00
2023-05-14T21:31:38.129Z,5.55
2023-05-14T21:34:04.987Z,4.13
2023-05-14T21:36:31.917Z,3.53
2023-05-14T21:38:58.746Z,2.70
2023-05-14T21:41:25.597Z,3.03
2023-05-14T21:43:52.477Z,2.40
2023-05-14T21:46:19.380Z,2.95
2023-05-14T21:48:46.259Z,33.97
2023-05-14T21:51:13.202Z,23.40
2023-05-14T21:53:40.042Z,7.40
2023-05-14T21:56:07.997Z,8.35
2023-05-14T21:58:35.486Z,16.88
2023-05-14T22:01:02.386Z,6.85
2023-05-14T22:03:29.276Z,3.53
2023-05-14T22:05:56.150Z,2.38
2023-05-14T22:08:23.677Z,2.45
2023-05-14T22:10:50.630Z,2.50
2023-05-14T22:13:17.422Z,2.22
2023-05-14T22:15:44.551Z,2.30
2023-05-14T22:18:12.692Z,2.45
2023-05-14T22:20:40.030Z,2.17
2023-05-14T22:23:07.098Z,2.33
2023-05-14T22:25:34.120Z,2.30
2023-05-14T22:28:00.964Z,2.22
2023-05-14T22:30:27.809Z,1.98
2023-05-14T22:32:54.618Z,2.22
2023-05-14T22:35:21.575Z,2.47
2023-05-14T22:37:48.404Z,2.10
2023-05-14T22:40:15.257Z,2.15
2023-05-14T22:42:42.066Z,2.08
2023-05-14T22:45:09.537Z,2.40
2023-05-14T22:47:37.573Z,2.50
2023-05-14T22:50:11.014Z,2.75
2023-05-14T22:52:41.483Z,3.30
2023-05-14T22:55:08.818Z,2.50
2023-05-14T22:57:35.669Z,2.72
2023-05-14T23:00:04.421Z,2.35
2023-05-14T23:02:31.294Z,2.42
2023-05-14T23:04:58.128Z,2.17
2023-05-14T23:07:25.169Z,2.08
2023-05-14T23:09:52.042Z,2.33
2023-05-14T23:12:18.944Z,2.05
2023-05-14T23:14:45.968Z,1.92
2023-05-14T23:17:14.513Z,2.20
2023-05-14T23:19:41.513Z,2.05
2023-05-14T23:22:08.455Z,2.38
2023-05-14T23:24:35.332Z,2.50
2023-05-14T23:27:02.352Z,2.22
2023-05-14T23:29:29.195Z,2.72
2023-05-14T23:31:56.053Z,2.30
2023-05-14T23:34:22.934Z,2.42
2023-05-14T23:36:50.233Z,2.20
2023-05-14T23:39:17.411Z,2.50
2023-05-14T23:41:44.217Z,2.40
2023-05-14T23:44:11.062Z,2.40
2023-05-14T23:46:37.872Z,2.80
2023-05-14T23:49:05.162Z,2.50
2023-05-14T23:51:32.015Z,2.50
2023-05-14T23:53:58.913Z,2.20
2023-05-14T23:56:30.016Z,2.00
2023-05-14T23:58:56.955Z,1.95
